Flight Track Log - Related Links

Times and Time Zones

All times are in EDT time to prevent confusion due to time zone crossing. See the SWA1021 flight status page for this flight to view local times or setup timezone preferences in your user account.

Time Position Orientation Groundspeed Altitude Reporting Facility
EDT Latitude Longitude Course Direction KTS MPH feet Rate Location/Type
Sat 10:43:53 AM 38.7667 -90.4167 191° South 162 186 2,700  Level Gateway (St. Louis) TRACON
Sat 10:44:41 AM 38.7817 -90.4508 299° West 214 246 3,900 2,236 Climbing Kansas City Center
Sat 10:45:43 AM 38.7325 -90.5297 231° Southwest 251 289 6,800 2,758 Climbing Kansas City Center
Sat 10:46:45 AM 38.6589 -90.5500 192° South 278 320 9,600 2,098 Climbing Kansas City Center
Sat 10:47:46 AM 38.5728 -90.5517 181° South 309 356 11,100 1,805 Climbing Kansas City Center
Sat 10:48:48 AM 38.4722 -90.5536 181° South 358 412 13,300 2,371 Climbing Kansas City Center
Sat 10:49:00 AM 38.1818 -89.8931 191° South  Level Estimated
Sat 10:49:50 AM 38.3700 -90.5572 182° South 368 423 16,000  Level Kansas City Center
Sat 10:50:51 AM 38.2442 -90.5625 182° South 375 432 18,200 2,049 Climbing Kansas City Center
Sat 10:51:53 AM 38.1356 -90.5661 181° South 385 443 20,200 1,839 Climbing Kansas City Center
Sat 10:52:55 AM 38.0244 -90.5692 181° South 395 455 22,000 1,756 Climbing Kansas City Center
Sat 10:53:56 AM 37.9256 -90.4881 147° Southeast 424 488 23,800 1,512 Climbing Kansas City Center
Sat 10:54:58 AM 37.8281 -90.3969 144° Southeast 434 499 25,100 1,415 Climbing Kansas City Center
Sat 10:55:59 AM 37.7269 -90.3042 144° Southeast 445 512 26,700 1,512 Climbing Kansas City Center
Sat 10:57:01 AM 37.6253 -90.2108 144° Southeast 451 519 28,200 1,548 Climbing Kansas City Center
Sat 10:58:03 AM 37.5019 -90.0967 144° Southeast 458 527 29,900 1,500 Climbing Kansas City Center
Sat 10:59:05 AM 37.4047 -90.0086 144° Southeast 456 525 31,300 1,268 Climbing Kansas City Center
Sat 11:00:06 AM 37.3047 -89.9158 144° Southeast 448 516 32,500 829 Climbing Kansas City Center
Sat 11:01:08 AM 37.2033 -89.8247 144° Southeast 447 514 33,000 1,125 Climbing Kansas City Center
Sat 11:01:58 AM 37.1075 -89.7378 144° Southeast 454 522 34,600 1,081 Climbing Memphis Center
Sat 11:02:59 AM 37.0092 -89.6503 145° Southeast 449 517 35,000 200 Climbing Memphis Center
Sat 11:03:58 AM 36.9083 -89.5578 144° Southeast 449 517 35,000  Level Memphis Center
Sat 11:04:58 AM 36.8100 -89.4681 144° Southeast 449 517 35,000  Level Memphis Center
Sat 11:05:59 AM 36.7092 -89.3786 145° Southeast 449 517 35,000  Level Memphis Center
Sat 11:06:58 AM 36.6294 -89.3047 143° Southeast 449 517 35,000  Level Memphis Center
Sat 11:07:59 AM 36.5200 -89.2053 144° Southeast 449 517 35,000  Level Memphis Center
Sat 11:08:59 AM 36.4172 -89.1139 144° Southeast 449 517 35,000  Level Memphis Center
Sat 11:09:59 AM 36.3161 -89.0278 146° Southeast 449 517 35,000  Level Memphis Center
Sat 11:10:58 AM 36.2150 -88.9394 145° Southeast 449 517 35,000  Level Memphis Center
Sat 11:11:59 AM 36.1139 -88.8514 145° Southeast 449 517 35,000  Level Memphis Center
Sat 11:12:58 AM 36.0150 -88.7658 145° Southeast 442 509 35,000  Level Memphis Center
Sat 11:13:59 AM 35.9136 -88.6783 145° Southeast 447 514 35,000  Level Memphis Center
Sat 11:14:59 AM 35.8144 -88.5906 144° Southeast 447 514 35,000  Level Memphis Center
Sat 11:15:59 AM 35.7131 -88.5033 145° Southeast 447 514 35,000  Level Memphis Center
Sat 11:16:59 AM 35.6117 -88.4164 145° Southeast 447 514 35,000  Level Memphis Center
Sat 11:17:59 AM 35.5039 -88.3244 145° Southeast 442 509 35,000  Level Memphis Center
Sat 11:18:59 AM 35.4022 -88.2353 144° Southeast 442 509 35,000  Level Memphis Center
Sat 11:19:59 AM 35.3006 -88.1539 147° Southeast 442 509 35,000  Level Memphis Center
Sat 11:20:58 AM 35.2011 -88.0675 145° Southeast 447 514 35,000  Level Memphis Center
Sat 11:21:59 AM 35.1014 -87.9789 144° Southeast 447 514 35,000  Level Memphis Center
Sat 11:22:59 AM 34.9975 -87.8931 146° Southeast 453 521 35,000  Level Memphis Center
Sat 11:23:59 AM 34.8956 -87.8100 146° Southeast 444 511 35,000  Level Memphis Center
Sat 11:24:59 AM 34.8106 -87.7317 143° Southeast 438 504 35,000  Level Memphis Center
Sat 11:25:59 AM 34.7064 -87.6489 147° Southeast 438 504 35,000  Level Memphis Center
Sat 11:26:59 AM 34.6044 -87.5639 146° Southeast 438 504 35,000  Level Memphis Center
Sat 11:27:58 AM 34.5044 -87.4789 145° Southeast 444 511 35,000  Level Memphis Center
Sat 11:29:56 AM 34.2928 -87.3400 152° Southeast 432 497 35,000  Level Atlanta Center
Sat 11:30:56 AM 34.1814 -87.2856 158° South 432 497 35,000  Level Atlanta Center
Sat 11:31:56 AM 34.0814 -87.2014 145° Southeast 432 497 35,000  Level Atlanta Center
Sat 11:32:56 AM 33.9792 -87.1150 145° Southeast 442 509 35,000  Level Atlanta Center
Sat 11:33:56 AM 33.8789 -87.0314 145° Southeast 449 517 35,000  Level Atlanta Center
Sat 11:34:56 AM 33.7789 -86.9453 144° Southeast 449 517 35,000  Level Atlanta Center
Sat 11:35:56 AM 33.6764 -86.8619 146° Southeast 449 517 35,000  Level Atlanta Center
Sat 11:36:56 AM 33.5739 -86.7764 145° Southeast 449 517 35,000  Level Atlanta Center
Sat 11:37:56 AM 33.4714 -86.6933 146° Southeast 449 517 35,000  Level Atlanta Center
Sat 11:38:56 AM 33.3689 -86.6083 145° Southeast 449 517 35,000  Level Atlanta Center
Sat 11:39:56 AM 33.2600 -86.5156 145° Southeast 443 510 35,000  Level Atlanta Center
Sat 11:40:56 AM 33.1575 -86.4308 145° Southeast 443 510 35,000  Level Atlanta Center
Sat 11:41:56 AM 33.0544 -86.3511 147° Southeast 443 510 35,000  Level Atlanta Center
Sat 11:42:56 AM 32.9497 -86.2642 145° Southeast 443 510 35,000  Level Atlanta Center
Sat 11:43:56 AM 32.8469 -86.1775 145° Southeast 453 521 35,000  Level Atlanta Center
Sat 11:44:56 AM 32.7419 -86.0936 146° Southeast 459 528 35,000  Level Atlanta Center
Sat 11:45:56 AM 32.6511 -86.0197 146° Southeast 459 528 35,000  Level Atlanta Center
Sat 11:46:56 AM 32.5461 -85.9361 146° Southeast 459 528 35,000  Level Atlanta Center
Sat 11:47:56 AM 32.4306 -85.8428 146° Southeast 464 534 35,000  Level Atlanta Center
Sat 11:48:56 AM 32.3356 -85.7669 146° Southeast 458 527 35,000  Level Atlanta Center
Sat 11:49:56 AM 32.2325 -85.6814 145° Southeast 458 527 35,000  Level Atlanta Center
Sat 11:50:56 AM 32.1250 -85.5986 147° Southeast 458 527 35,000  Level Atlanta Center
Sat 11:52:54 AM 31.9175 -85.4356 146° Southeast 456 525 35,000  Level Jacksonville Center
Sat 11:53:55 AM 31.8106 -85.3544 147° Southeast 456 525 35,000  Level Jacksonville Center
Sat 11:54:55 AM 31.7036 -85.2783 149° Southeast 451 519 35,000  Level Jacksonville Center
Sat 11:55:55 AM 31.5986 -85.2025 148° Southeast 446 513 35,000  Level Jacksonville Center
Sat 11:56:55 AM 31.4914 -85.1219 147° Southeast 446 513 35,000  Level Jacksonville Center
Sat 11:57:55 AM 31.3842 -85.0439 148° Southeast 451 519 35,000  Level Jacksonville Center
Sat 11:58:55 AM 31.2747 -84.9683 149° Southeast 451 519 35,000  Level Jacksonville Center
Sat 11:59:55 AM 31.1694 -84.8883 147° Southeast 451 519 35,000  Level Jacksonville Center
Sat 12:00:55 PM 31.0497 -84.8058 149° Southeast 451 519 35,000  Level Jacksonville Center
Sat 12:01:54 PM 30.9547 -84.7336 147° Southeast 451 519 35,000  Level Jacksonville Center
Sat 12:02:55 PM 30.8472 -84.6567 148° Southeast 451 519 35,000  Level Jacksonville Center
Sat 12:03:55 PM 30.7397 -84.5797 148° Southeast 451 519 35,000  Level Jacksonville Center
Sat 12:04:55 PM 30.6219 -84.4931 148° Southeast 451 519 35,000  Level Jacksonville Center
Sat 12:05:55 PM 30.5122 -84.4164 149° Southeast 456 525 35,000  Level Jacksonville Center
Sat 12:06:55 PM 30.4025 -84.3400 149° Southeast 456 525 35,000  Level Jacksonville Center
Sat 12:07:55 PM 30.2925 -84.2614 148° Southeast 461 531 35,000  Level Jacksonville Center
Sat 12:08:55 PM 30.1828 -84.1831 148° Southeast 468 539 35,000  Level Jacksonville Center
Sat 12:09:55 PM 30.0872 -84.1169 149° Southeast 462 532 35,000  Level Jacksonville Center
Sat 12:10:54 PM 29.9731 -84.0628 158° South 454 522 35,000  Level Jacksonville Center
Sat 12:11:55 PM 29.8567 -84.0158 161° South 448 516 35,000  Level Jacksonville Center
Sat 12:12:55 PM 29.7381 -83.9714 162° South 448 516 35,000  Level Jacksonville Center
Sat 12:13:55 PM 29.6214 -83.9247 161° South 448 516 35,000 -50 Level Jacksonville Center
Sat 12:14:55 PM 29.5072 -83.8592 153° Southeast 448 516 34,900 -1,800 Descending Jacksonville Center
Sat 12:15:55 PM 29.3889 -83.7603 144° Southeast 466 536 31,400 -2,750 Descending Jacksonville Center
Sat 12:16:55 PM 29.2808 -83.6736 145° Southeast 474 545 29,400 -2,200 Descending Jacksonville Center
Sat 12:17:55 PM 29.1769 -83.5917 145° Southeast 468 539 27,000 -2,050 Descending Jacksonville Center
Sat 12:18:55 PM 29.0792 -83.5150 146° Southeast 449 517 25,300 -1,500 Descending Jacksonville Center
Sat 12:19:55 PM 28.9836 -83.4408 146° Southeast 436 502 24,000 -850 Descending Jacksonville Center
Sat 12:20:55 PM 28.8900 -83.3669 145° Southeast 423 487 23,600 -1,150 Descending Jacksonville Center
Sat 12:21:55 PM 28.8025 -83.3000 146° Southeast 406 467 21,700 -1,950 Descending Jacksonville Center
Sat 12:22:55 PM 28.7131 -83.2311 146° Southeast 391 450 19,700 -1,905 Descending Jacksonville Center
Sat 12:25:26 PM 28.5000 -83.0667 146° Southeast 364 419 15,000 -1,864 Descending Tampa TRACON
Sat 12:26:21 PM 28.4167 -83.0000 145° Southeast 356 410 13,300 -1,700 Descending Tampa TRACON
Sat 12:27:26 PM 28.3333 -82.9500 152° Southeast 334 384 11,600 -1,350 Descending Tampa TRACON
Sat 12:28:21 PM 28.2667 -82.9000 147° Southeast 307 353 10,600 -1,357 Descending Tampa TRACON
Sat 12:29:21 PM 28.2000 -82.8500 147° Southeast 300 345 9,000 -1,550 Descending Tampa TRACON
Sat 12:30:21 PM 28.1333 -82.7833 139° Southeast 295 339 7,500 -1,450 Descending Tampa TRACON
Sat 12:31:21 PM 28.0833 -82.7167 130° Southeast 288 331 6,100 -1,263 Descending Tampa TRACON
Sat 12:32:15 PM 28.0333 -82.6500 130° Southeast 280 322 5,100 -750 Descending Tampa TRACON
Sat 12:33:21 PM 27.9833 -82.6167 150° Southeast 231 266 4,600 -1,100 Descending Tampa TRACON
Sat 12:34:15 PM 27.9167 -82.6000 168° South 226 260 2,900 -1,368 Descending Tampa TRACON
Sat 12:35:15 PM 27.9000 -82.5667 119° Southeast 173 199 2,000 -1,100 Descending Tampa TRACON
Sat 12:36:15 PM 27.9333 -82.5500 24° Northeast 151 174 700 -1,300 Descending Tampa TRACON

Login

Don't have an account? Register now (free) for customized features, flight alerts, and more!